sensor_id;sensor_type;location;lat;lon;timestamp;P1;durP1;ratioP1;P2;durP2;ratioP2
13807;SDS011;40769;51.512;5.494;2023-05-20T00:02:13;2.42;;;1.95;;
13807;SDS011;40769;51.512;5.494;2023-05-20T00:04:39;3.40;;;2.25;;
13807;SDS011;40769;51.512;5.494;2023-05-20T00:07:05;2.78;;;2.08;;
13807;SDS011;40769;51.512;5.494;2023-05-20T00:09:31;3.42;;;2.03;;
13807;SDS011;40769;51.512;5.494;2023-05-20T00:11:57;3.40;;;2.20;;
13807;SDS011;40769;51.512;5.494;2023-05-20T00:14:22;2.85;;;2.50;;
13807;SDS011;40769;51.512;5.494;2023-05-20T00:16:48;3.22;;;2.28;;
13807;SDS011;40769;51.512;5.494;2023-05-20T00:19:13;4.28;;;2.45;;
13807;SDS011;40769;51.512;5.494;2023-05-20T00:21:39;3.65;;;2.65;;
13807;SDS011;40769;51.512;5.494;2023-05-20T00:24:05;4.07;;;2.50;;
13807;SDS011;40769;51.512;5.494;2023-05-20T00:26:30;3.40;;;2.40;;
13807;SDS011;40769;51.512;5.494;2023-05-20T00:28:56;3.35;;;2.40;;
13807;SDS011;40769;51.512;5.494;2023-05-20T00:31:21;2.78;;;2.35;;
13807;SDS011;40769;51.512;5.494;2023-05-20T00:33:48;3.28;;;2.70;;
13807;SDS011;40769;51.512;5.494;2023-05-20T00:36:13;3.63;;;2.45;;
13807;SDS011;40769;51.512;5.494;2023-05-20T00:38:39;4.45;;;2.45;;
13807;SDS011;40769;51.512;5.494;2023-05-20T00:41:04;4.28;;;2.95;;
13807;SDS011;40769;51.512;5.494;2023-05-20T00:43:30;2.80;;;2.50;;
13807;SDS011;40769;51.512;5.494;2023-05-20T00:45:55;3.00;;;2.63;;
13807;SDS011;40769;51.512;5.494;2023-05-20T00:48:21;3.50;;;2.53;;
13807;SDS011;40769;51.512;5.494;2023-05-20T00:50:47;3.42;;;2.67;;
13807;SDS011;40769;51.512;5.494;2023-05-20T00:53:15;3.03;;;2.60;;
13807;SDS011;40769;51.512;5.494;2023-05-20T00:55:42;3.92;;;2.88;;
13807;SDS011;40769;51.512;5.494;2023-05-20T00:58:08;3.72;;;2.85;;
13807;SDS011;40769;51.512;5.494;2023-05-20T01:00:34;4.35;;;3.05;;
13807;SDS011;40769;51.512;5.494;2023-05-20T01:03:00;6.00;;;2.83;;
13807;SDS011;40769;51.512;5.494;2023-05-20T01:05:26;2.70;;;2.50;;
13807;SDS011;40769;51.512;5.494;2023-05-20T01:07:51;8.93;;;2.83;;
13807;SDS011;40769;51.512;5.494;2023-05-20T01:10:17;2.92;;;2.55;;
13807;SDS011;40769;51.512;5.494;2023-05-20T01:12:50;4.22;;;2.63;;
13807;SDS011;40769;51.512;5.494;2023-05-20T01:15:19;3.22;;;2.88;;
13807;SDS011;40769;51.512;5.494;2023-05-20T01:17:48;3.47;;;2.55;;
13807;SDS011;40769;51.512;5.494;2023-05-20T01:20:17;4.22;;;2.70;;
13807;SDS011;40769;51.512;5.494;2023-05-20T01:22:47;2.95;;;2.65;;
13807;SDS011;40769;51.512;5.494;2023-05-20T01:25:14;3.67;;;2.88;;
13807;SDS011;40769;51.512;5.494;2023-05-20T01:27:40;3.30;;;2.88;;
13807;SDS011;40769;51.512;5.494;2023-05-20T01:30:06;3.47;;;2.92;;
13807;SDS011;40769;51.512;5.494;2023-05-20T01:32:42;3.60;;;2.90;;
13807;SDS011;40769;51.512;5.494;2023-05-20T01:35:12;3.33;;;2.70;;
13807;SDS011;40769;51.512;5.494;2023-05-20T01:37:40;3.20;;;2.78;;
13807;SDS011;40769;51.512;5.494;2023-05-20T01:40:07;3.97;;;2.90;;
13807;SDS011;40769;51.512;5.494;2023-05-20T01:42:33;3.70;;;3.05;;
13807;SDS011;40769;51.512;5.494;2023-05-20T01:45:00;3.13;;;2.78;;
13807;SDS011;40769;51.512;5.494;2023-05-20T01:47:26;4.95;;;3.42;;
13807;SDS011;40769;51.512;5.494;2023-05-20T01:49:51;3.42;;;3.10;;
13807;SDS011;40769;51.512;5.494;2023-05-20T01:52:18;3.40;;;2.90;;
13807;SDS011;40769;51.512;5.494;2023-05-20T01:54:45;4.30;;;3.13;;
13807;SDS011;40769;51.512;5.494;2023-05-20T01:57:15;4.65;;;3.33;;
13807;SDS011;40769;51.512;5.494;2023-05-20T01:59:44;3.35;;;3.00;;
13807;SDS011;40769;51.512;5.494;2023-05-20T02:02:10;3.85;;;2.80;;
13807;SDS011;40769;51.512;5.494;2023-05-20T02:04:36;4.30;;;3.15;;
13807;SDS011;40769;51.512;5.494;2023-05-20T02:07:01;5.07;;;2.88;;
13807;SDS011;40769;51.512;5.494;2023-05-20T02:09:27;4.40;;;3.20;;
13807;SDS011;40769;51.512;5.494;2023-05-20T02:11:52;4.15;;;2.92;;
13807;SDS011;40769;51.512;5.494;2023-05-20T02:14:18;3.38;;;3.08;;
13807;SDS011;40769;51.512;5.494;2023-05-20T02:16:45;5.85;;;3.40;;
13807;SDS011;40769;51.512;5.494;2023-05-20T02:19:11;4.03;;;3.53;;
13807;SDS011;40769;51.512;5.494;2023-05-20T02:21:40;4.25;;;3.40;;
13807;SDS011;40769;51.512;5.494;2023-05-20T02:24:06;5.75;;;3.30;;
13807;SDS011;40769;51.512;5.494;2023-05-20T02:26:33;4.32;;;3.13;;
13807;SDS011;40769;51.512;5.494;2023-05-20T02:28:58;3.58;;;2.83;;
13807;SDS011;40769;51.512;5.494;2023-05-20T02:31:24;4.10;;;3.22;;
13807;SDS011;40769;51.512;5.494;2023-05-20T02:33:50;4.07;;;3.15;;
13807;SDS011;40769;51.512;5.494;2023-05-20T02:36:15;4.13;;;3.58;;
13807;SDS011;40769;51.512;5.494;2023-05-20T02:38:41;3.17;;;2.88;;
13807;SDS011;40769;51.512;5.494;2023-05-20T02:41:08;3.85;;;3.08;;
13807;SDS011;40769;51.512;5.494;2023-05-20T02:43:34;4.38;;;3.50;;
13807;SDS011;40769;51.512;5.494;2023-05-20T02:46:00;5.97;;;3.65;;
13807;SDS011;40769;51.512;5.494;2023-05-20T02:48:27;3.80;;;3.40;;
13807;SDS011;40769;51.512;5.494;2023-05-20T02:50:52;4.78;;;3.53;;
13807;SDS011;40769;51.512;5.494;2023-05-20T02:53:18;5.20;;;3.50;;
13807;SDS011;40769;51.512;5.494;2023-05-20T02:55:44;4.22;;;3.53;;
13807;SDS011;40769;51.512;5.494;2023-05-20T02:58:14;5.10;;;3.33;;
13807;SDS011;40769;51.512;5.494;2023-05-20T03:00:41;4.80;;;3.22;;
13807;SDS011;40769;51.512;5.494;2023-05-20T03:03:07;3.00;;;2.70;;
13807;SDS011;40769;51.512;5.494;2023-05-20T03:05:37;3.63;;;2.83;;
13807;SDS011;40769;51.512;5.494;2023-05-20T03:08:07;3.55;;;2.83;;
13807;SDS011;40769;51.512;5.494;2023-05-20T03:10:34;2.88;;;2.40;;
13807;SDS011;40769;51.512;5.494;2023-05-20T03:13:01;3.70;;;3.30;;
13807;SDS011;40769;51.512;5.494;2023-05-20T03:15:28;3.05;;;2.47;;
13807;SDS011;40769;51.512;5.494;2023-05-20T03:17:54;4.03;;;2.92;;
13807;SDS011;40769;51.512;5.494;2023-05-20T03:20:20;4.70;;;3.30;;
13807;SDS011;40769;51.512;5.494;2023-05-20T03:22:45;3.53;;;2.97;;
13807;SDS011;40769;51.512;5.494;2023-05-20T03:25:11;5.13;;;3.33;;
13807;SDS011;40769;51.512;5.494;2023-05-20T03:27:37;3.70;;;3.40;;
13807;SDS011;40769;51.512;5.494;2023-05-20T03:30:05;5.78;;;3.30;;
13807;SDS011;40769;51.512;5.494;2023-05-20T03:32:37;3.65;;;3.25;;
13807;SDS011;40769;51.512;5.494;2023-05-20T03:35:03;3.80;;;3.40;;
13807;SDS011;40769;51.512;5.494;2023-05-20T03:37:28;3.03;;;2.72;;
13807;SDS011;40769;51.512;5.494;2023-05-20T03:39:54;3.35;;;3.08;;
13807;SDS011;40769;51.512;5.494;2023-05-20T03:42:21;4.47;;;3.75;;
13807;SDS011;40769;51.512;5.494;2023-05-20T03:44:46;4.10;;;3.70;;
13807;SDS011;40769;51.512;5.494;2023-05-20T03:47:12;4.03;;;3.50;;
13807;SDS011;40769;51.512;5.494;2023-05-20T03:49:38;3.70;;;3.35;;
13807;SDS011;40769;51.512;5.494;2023-05-20T03:52:05;4.65;;;3.95;;
13807;SDS011;40769;51.512;5.494;2023-05-20T03:54:31;3.92;;;3.50;;
13807;SDS011;40769;51.512;5.494;2023-05-20T03:56:57;4.72;;;3.80;;
13807;SDS011;40769;51.512;5.494;2023-05-20T03:59:24;7.10;;;4.03;;
13807;SDS011;40769;51.512;5.494;2023-05-20T04:01:51;4.40;;;4.00;;
13807;SDS011;40769;51.512;5.494;2023-05-20T04:04:17;4.85;;;4.45;;
13807;SDS011;40769;51.512;5.494;2023-05-20T04:06:42;4.53;;;3.90;;
13807;SDS011;40769;51.512;5.494;2023-05-20T04:09:08;5.18;;;3.60;;
13807;SDS011;40769;51.512;5.494;2023-05-20T04:11:33;4.43;;;3.90;;
13807;SDS011;40769;51.512;5.494;2023-05-20T04:13:59;4.03;;;3.60;;
13807;SDS011;40769;51.512;5.494;2023-05-20T04:16:24;5.00;;;4.00;;
13807;SDS011;40769;51.512;5.494;2023-05-20T04:18:50;4.40;;;4.00;;
13807;SDS011;40769;51.512;5.494;2023-05-20T04:21:16;4.32;;;3.55;;
13807;SDS011;40769;51.512;5.494;2023-05-20T04:23:43;4.57;;;3.88;;
13807;SDS011;40769;51.512;5.494;2023-05-20T04:26:09;3.28;;;3.08;;
13807;SDS011;40769;51.512;5.494;2023-05-20T04:28:34;3.75;;;3.45;;
13807;SDS011;40769;51.512;5.494;2023-05-20T04:31:01;4.60;;;3.80;;
13807;SDS011;40769;51.512;5.494;2023-05-20T04:33:29;4.40;;;3.90;;
13807;SDS011;40769;51.512;5.494;2023-05-20T04:35:55;4.93;;;4.40;;
13807;SDS011;40769;51.512;5.494;2023-05-20T04:38:23;8.20;;;3.90;;
13807;SDS011;40769;51.512;5.494;2023-05-20T04:40:54;5.05;;;4.35;;
13807;SDS011;40769;51.512;5.494;2023-05-20T04:43:23;5.70;;;4.15;;
13807;SDS011;40769;51.512;5.494;2023-05-20T04:45:54;4.15;;;3.67;;
13807;SDS011;40769;51.512;5.494;2023-05-20T04:48:20;4.28;;;3.90;;
13807;SDS011;40769;51.512;5.494;2023-05-20T04:50:46;5.10;;;4.13;;
13807;SDS011;40769;51.512;5.494;2023-05-20T04:53:13;4.50;;;4.20;;
13807;SDS011;40769;51.512;5.494;2023-05-20T04:55:39;4.85;;;4.22;;
13807;SDS011;40769;51.512;5.494;2023-05-20T04:58:05;4.75;;;4.22;;
13807;SDS011;40769;51.512;5.494;2023-05-20T05:00:32;5.15;;;4.65;;
13807;SDS011;40769;51.512;5.494;2023-05-20T05:02:57;4.03;;;3.63;;
13807;SDS011;40769;51.512;5.494;2023-05-20T05:05:23;4.38;;;3.80;;
13807;SDS011;40769;51.512;5.494;2023-05-20T05:07:49;5.30;;;4.80;;
13807;SDS011;40769;51.512;5.494;2023-05-20T05:10:14;5.05;;;4.13;;
13807;SDS011;40769;51.512;5.494;2023-05-20T05:12:40;5.05;;;4.13;;
13807;SDS011;40769;51.512;5.494;2023-05-20T05:15:06;4.82;;;4.30;;
13807;SDS011;40769;51.512;5.494;2023-05-20T05:17:32;3.97;;;3.58;;
13807;SDS011;40769;51.512;5.494;2023-05-20T05:19:58;4.55;;;3.95;;
13807;SDS011;40769;51.512;5.494;2023-05-20T05:22:23;4.15;;;3.78;;
13807;SDS011;40769;51.512;5.494;2023-05-20T05:24:49;4.18;;;3.75;;
13807;SDS011;40769;51.512;5.494;2023-05-20T05:27:14;4.60;;;4.03;;
13807;SDS011;40769;51.512;5.494;2023-05-20T05:29:40;5.57;;;4.03;;
13807;SDS011;40769;51.512;5.494;2023-05-20T05:32:06;4.55;;;3.78;;
13807;SDS011;40769;51.512;5.494;2023-05-20T05:34:32;4.45;;;4.05;;
13807;SDS011;40769;51.512;5.494;2023-05-20T05:36:57;5.30;;;4.45;;
13807;SDS011;40769;51.512;5.494;2023-05-20T05:39:23;3.90;;;3.50;;
13807;SDS011;40769;51.512;5.494;2023-05-20T05:41:48;4.28;;;3.88;;
13807;SDS011;40769;51.512;5.494;2023-05-20T05:44:14;5.43;;;4.22;;
13807;SDS011;40769;51.512;5.494;2023-05-20T05:46:39;4.85;;;4.10;;
13807;SDS011;40769;51.512;5.494;2023-05-20T05:49:05;5.85;;;4.20;;
13807;SDS011;40769;51.512;5.494;2023-05-20T05:51:30;3.80;;;3.50;;
13807;SDS011;40769;51.512;5.494;2023-05-20T05:53:56;5.80;;;4.28;;
13807;SDS011;40769;51.512;5.494;2023-05-20T05:56:22;4.65;;;4.25;;
13807;SDS011;40769;51.512;5.494;2023-05-20T05:58:47;4.15;;;3.65;;
13807;SDS011;40769;51.512;5.494;2023-05-20T06:01:13;4.10;;;3.70;;
13807;SDS011;40769;51.512;5.494;2023-05-20T06:03:39;4.03;;;3.47;;
13807;SDS011;40769;51.512;5.494;2023-05-20T06:06:04;5.57;;;3.78;;
13807;SDS011;40769;51.512;5.494;2023-05-20T06:08:30;3.55;;;3.25;;
13807;SDS011;40769;51.512;5.494;2023-05-20T06:10:55;4.22;;;3.83;;
13807;SDS011;40769;51.512;5.494;2023-05-20T06:13:21;4.15;;;3.83;;
13807;SDS011;40769;51.512;5.494;2023-05-20T06:15:49;4.32;;;3.88;;
13807;SDS011;40769;51.512;5.494;2023-05-20T06:18:15;3.97;;;3.58;;
13807;SDS011;40769;51.512;5.494;2023-05-20T06:20:43;3.80;;;3.50;;
13807;SDS011;40769;51.512;5.494;2023-05-20T06:23:09;5.47;;;3.25;;
13807;SDS011;40769;51.512;5.494;2023-05-20T06:25:35;5.20;;;3.50;;
13807;SDS011;40769;51.512;5.494;2023-05-20T06:28:00;4.07;;;3.13;;
13807;SDS011;40769;51.512;5.494;2023-05-20T06:30:26;4.65;;;3.53;;
13807;SDS011;40769;51.512;5.494;2023-05-20T06:32:52;3.20;;;2.90;;
13807;SDS011;40769;51.512;5.494;2023-05-20T06:35:17;3.47;;;2.95;;
13807;SDS011;40769;51.512;5.494;2023-05-20T06:37:43;3.15;;;2.85;;
13807;SDS011;40769;51.512;5.494;2023-05-20T06:40:08;4.90;;;3.00;;
13807;SDS011;40769;51.512;5.494;2023-05-20T06:42:34;3.30;;;3.00;;
13807;SDS011;40769;51.512;5.494;2023-05-20T06:45:00;3.70;;;3.10;;
13807;SDS011;40769;51.512;5.494;2023-05-20T06:47:26;4.10;;;2.97;;
13807;SDS011;40769;51.512;5.494;2023-05-20T06:49:51;3.30;;;2.72;;
13807;SDS011;40769;51.512;5.494;2023-05-20T06:52:17;2.90;;;2.33;;
13807;SDS011;40769;51.512;5.494;2023-05-20T06:54:42;3.92;;;2.90;;
13807;SDS011;40769;51.512;5.494;2023-05-20T06:57:08;3.58;;;2.58;;
13807;SDS011;40769;51.512;5.494;2023-05-20T06:59:37;3.50;;;2.67;;
13807;SDS011;40769;51.512;5.494;2023-05-20T07:02:03;3.58;;;2.67;;
13807;SDS011;40769;51.512;5.494;2023-05-20T07:04:29;2.90;;;2.53;;
13807;SDS011;40769;51.512;5.494;2023-05-20T07:06:55;3.55;;;2.47;;
13807;SDS011;40769;51.512;5.494;2023-05-20T07:09:20;5.13;;;3.13;;
13807;SDS011;40769;51.512;5.494;2023-05-20T07:11:46;4.32;;;3.00;;
13807;SDS011;40769;51.512;5.494;2023-05-20T07:14:11;4.80;;;2.47;;
13807;SDS011;40769;51.512;5.494;2023-05-20T07:16:37;2.92;;;2.60;;
13807;SDS011;40769;51.512;5.494;2023-05-20T07:19:03;3.33;;;2.40;;
13807;SDS011;40769;51.512;5.494;2023-05-20T07:21:28;3.65;;;2.80;;
13807;SDS011;40769;51.512;5.494;2023-05-20T07:23:54;2.70;;;2.40;;
13807;SDS011;40769;51.512;5.494;2023-05-20T07:26:20;4.72;;;2.35;;
13807;SDS011;40769;51.512;5.494;2023-05-20T07:28:46;2.72;;;2.53;;
13807;SDS011;40769;51.512;5.494;2023-05-20T07:31:12;3.25;;;2.65;;
13807;SDS011;40769;51.512;5.494;2023-05-20T07:33:38;2.25;;;2.03;;
13807;SDS011;40769;51.512;5.494;2023-05-20T07:36:03;2.80;;;2.60;;
13807;SDS011;40769;51.512;5.494;2023-05-20T07:38:29;2.85;;;2.28;;
13807;SDS011;40769;51.512;5.494;2023-05-20T07:40:56;3.50;;;2.47;;
13807;SDS011;40769;51.512;5.494;2023-05-20T07:43:21;3.33;;;2.35;;
13807;SDS011;40769;51.512;5.494;2023-05-20T07:45:47;2.78;;;2.50;;
13807;SDS011;40769;51.512;5.494;2023-05-20T07:48:13;2.25;;;2.03;;
13807;SDS011;40769;51.512;5.494;2023-05-20T07:50:38;3.05;;;2.28;;
13807;SDS011;40769;51.512;5.494;2023-05-20T07:53:05;2.63;;;2.13;;
13807;SDS011;40769;51.512;5.494;2023-05-20T07:55:34;3.10;;;2.58;;
13807;SDS011;40769;51.512;5.494;2023-05-20T07:58:02;3.78;;;2.60;;
13807;SDS011;40769;51.512;5.494;2023-05-20T08:00:28;2.38;;;2.08;;
13807;SDS011;40769;51.512;5.494;2023-05-20T08:02:54;2.30;;;2.10;;
13807;SDS011;40769;51.512;5.494;2023-05-20T08:05:19;2.65;;;2.10;;
13807;SDS011;40769;51.512;5.494;2023-05-20T08:07:46;2.28;;;2.08;;
13807;SDS011;40769;51.512;5.494;2023-05-20T08:10:12;3.50;;;2.05;;
13807;SDS011;40769;51.512;5.494;2023-05-20T08:12:38;2.72;;;2.10;;
13807;SDS011;40769;51.512;5.494;2023-05-20T08:15:04;3.60;;;2.40;;
13807;SDS011;40769;51.512;5.494;2023-05-20T08:17:31;2.50;;;2.28;;
13807;SDS011;40769;51.512;5.494;2023-05-20T08:19:56;2.25;;;2.05;;
13807;SDS011;40769;51.512;5.494;2023-05-20T08:22:22;3.67;;;2.05;;
13807;SDS011;40769;51.512;5.494;2023-05-20T08:24:48;2.67;;;2.42;;
13807;SDS011;40769;51.512;5.494;2023-05-20T08:27:13;2.60;;;2.03;;
13807;SDS011;40769;51.512;5.494;2023-05-20T08:29:39;3.03;;;2.30;;
13807;SDS011;40769;51.512;5.494;2023-05-20T08:32:04;2.22;;;1.95;;
13807;SDS011;40769;51.512;5.494;2023-05-20T08:34:30;3.78;;;2.35;;
13807;SDS011;40769;51.512;5.494;2023-05-20T08:36:56;3.00;;;1.80;;
13807;SDS011;40769;51.512;5.494;2023-05-20T08:39:22;3.58;;;2.08;;
13807;SDS011;40769;51.512;5.494;2023-05-20T08:41:47;2.22;;;2.03;;
13807;SDS011;40769;51.512;5.494;2023-05-20T08:44:13;2.45;;;2.13;;
13807;SDS011;40769;51.512;5.494;2023-05-20T08:46:41;2.15;;;1.95;;
13807;SDS011;40769;51.512;5.494;2023-05-20T08:49:07;3.22;;;1.98;;
13807;SDS011;40769;51.512;5.494;2023-05-20T08:51:33;2.28;;;2.08;;
13807;SDS011;40769;51.512;5.494;2023-05-20T08:54:01;2.50;;;1.92;;
13807;SDS011;40769;51.512;5.494;2023-05-20T08:56:27;2.70;;;1.98;;
13807;SDS011;40769;51.512;5.494;2023-05-20T08:58:53;2.72;;;2.25;;
13807;SDS011;40769;51.512;5.494;2023-05-20T09:01:25;2.10;;;1.55;;
13807;SDS011;40769;51.512;5.494;2023-05-20T09:03:51;2.97;;;1.90;;
13807;SDS011;40769;51.512;5.494;2023-05-20T09:06:17;2.35;;;1.55;;
13807;SDS011;40769;51.512;5.494;2023-05-20T09:08:47;3.33;;;1.90;;
13807;SDS011;40769;51.512;5.494;2023-05-20T09:11:14;2.05;;;1.60;;
13807;SDS011;40769;51.512;5.494;2023-05-20T09:13:40;1.90;;;1.63;;
13807;SDS011;40769;51.512;5.494;2023-05-20T09:16:05;3.22;;;1.70;;
13807;SDS011;40769;51.512;5.494;2023-05-20T09:18:36;2.17;;;1.95;;
13807;SDS011;40769;51.512;5.494;2023-05-20T09:21:03;1.45;;;1.35;;
13807;SDS011;40769;51.512;5.494;2023-05-20T09:23:35;2.45;;;1.90;;
13807;SDS011;40769;51.512;5.494;2023-05-20T09:26:02;2.75;;;1.77;;
13807;SDS011;40769;51.512;5.494;2023-05-20T09:28:28;2.05;;;1.85;;
13807;SDS011;40769;51.512;5.494;2023-05-20T09:30:57;4.32;;;1.77;;
13807;SDS011;40769;51.512;5.494;2023-05-20T09:33:25;1.80;;;1.70;;
13807;SDS011;40769;51.512;5.494;2023-05-20T09:36:08;2.30;;;2.10;;
13807;SDS011;40769;51.512;5.494;2023-05-20T09:38:36;3.05;;;2.08;;
13807;SDS011;40769;51.512;5.494;2023-05-20T09:41:05;3.08;;;2.00;;
13807;SDS011;40769;51.512;5.494;2023-05-20T09:43:32;2.20;;;2.00;;
13807;SDS011;40769;51.512;5.494;2023-05-20T09:45:59;2.40;;;2.03;;
13807;SDS011;40769;51.512;5.494;2023-05-20T09:48:26;2.10;;;1.90;;
13807;SDS011;40769;51.512;5.494;2023-05-20T09:50:53;4.45;;;1.70;;
13807;SDS011;40769;51.512;5.494;2023-05-20T09:53:20;2.15;;;1.85;;
13807;SDS011;40769;51.512;5.494;2023-05-20T09:55:47;2.38;;;1.90;;
13807;SDS011;40769;51.512;5.494;2023-05-20T09:58:14;2.78;;;2.13;;
13807;SDS011;40769;51.512;5.494;2023-05-20T10:00:42;1.90;;;1.70;;
13807;SDS011;40769;51.512;5.494;2023-05-20T10:03:08;2.15;;;1.85;;
13807;SDS011;40769;51.512;5.494;2023-05-20T10:05:35;2.00;;;1.60;;
13807;SDS011;40769;51.512;5.494;2023-05-20T10:21:42;2.65;;;1.80;;
13807;SDS011;40769;51.512;5.494;2023-05-20T10:24:08;2.08;;;1.52;;
13807;SDS011;40769;51.512;5.494;2023-05-20T10:26:38;1.85;;;1.65;;
13807;SDS011;40769;51.512;5.494;2023-05-20T10:29:17;1.58;;;1.48;;
13807;SDS011;40769;51.512;5.494;2023-05-20T10:31:53;1.67;;;1.58;;
13807;SDS011;40769;51.512;5.494;2023-05-20T10:34:20;3.13;;;2.17;;
13807;SDS011;40769;51.512;5.494;2023-05-20T10:39:18;2.00;;;1.70;;
13807;SDS011;40769;51.512;5.494;2023-05-20T10:41:50;2.55;;;1.75;;
13807;SDS011;40769;51.512;5.494;2023-05-20T10:44:16;1.70;;;1.50;;
13807;SDS011;40769;51.512;5.494;2023-05-20T10:46:42;2.30;;;1.80;;
13807;SDS011;40769;51.512;5.494;2023-05-20T10:49:17;2.38;;;1.77;;
13807;SDS011;40769;51.512;5.494;2023-05-20T10:51:46;2.10;;;1.90;;
13807;SDS011;40769;51.512;5.494;2023-05-20T10:54:12;2.03;;;1.83;;
13807;SDS011;40769;51.512;5.494;2023-05-20T10:56:38;2.40;;;2.20;;
13807;SDS011;40769;51.512;5.494;2023-05-20T10:59:14;2.28;;;2.08;;
13807;SDS011;40769;51.512;5.494;2023-05-20T11:01:40;2.47;;;1.70;;
13807;SDS011;40769;51.512;5.494;2023-05-20T11:04:07;1.63;;;1.50;;
13807;SDS011;40769;51.512;5.494;2023-05-20T11:06:33;2.80;;;1.70;;
13807;SDS011;40769;51.512;5.494;2023-05-20T11:09:02;3.13;;;1.90;;
13807;SDS011;40769;51.512;5.494;2023-05-20T11:11:31;2.25;;;1.95;;
13807;SDS011;40769;51.512;5.494;2023-05-20T11:13:57;1.77;;;1.65;;
13807;SDS011;40769;51.512;5.494;2023-05-20T11:16:24;1.92;;;1.75;;
13807;SDS011;40769;51.512;5.494;2023-05-20T11:18:50;2.50;;;1.90;;
13807;SDS011;40769;51.512;5.494;2023-05-20T11:21:17;2.25;;;1.88;;
13807;SDS011;40769;51.512;5.494;2023-05-20T11:23:43;2.05;;;1.67;;
13807;SDS011;40769;51.512;5.494;2023-05-20T11:26:09;2.05;;;1.92;;
13807;SDS011;40769;51.512;5.494;2023-05-20T11:28:35;2.47;;;1.77;;
13807;SDS011;40769;51.512;5.494;2023-05-20T11:31:00;2.10;;;1.52;;
13807;SDS011;40769;51.512;5.494;2023-05-20T11:33:26;2.40;;;1.67;;
13807;SDS011;40769;51.512;5.494;2023-05-20T11:35:53;1.50;;;1.40;;
13807;SDS011;40769;51.512;5.494;2023-05-20T11:38:20;1.90;;;1.67;;
13807;SDS011;40769;51.512;5.494;2023-05-20T11:40:49;2.80;;;1.90;;
13807;SDS011;40769;51.512;5.494;2023-05-20T11:43:16;2.10;;;1.90;;
13807;SDS011;40769;51.512;5.494;2023-05-20T11:45:43;2.13;;;1.73;;
13807;SDS011;40769;51.512;5.494;2023-05-20T11:48:10;3.67;;;1.55;;
13807;SDS011;40769;51.512;5.494;2023-05-20T11:50:43;2.13;;;1.80;;
13807;SDS011;40769;51.512;5.494;2023-05-20T11:53:13;1.80;;;1.70;;
13807;SDS011;40769;51.512;5.494;2023-05-20T11:55:56;2.88;;;1.70;;
13807;SDS011;40769;51.512;5.494;2023-05-20T11:58:23;4.47;;;1.92;;
13807;SDS011;40769;51.512;5.494;2023-05-20T12:00:50;2.42;;;1.70;;
13807;SDS011;40769;51.512;5.494;2023-05-20T12:03:16;1.98;;;1.73;;
13807;SDS011;40769;51.512;5.494;2023-05-20T12:05:42;2.85;;;2.05;;
13807;SDS011;40769;51.512;5.494;2023-05-20T12:08:08;2.38;;;1.60;;
13807;SDS011;40769;51.512;5.494;2023-05-20T12:10:34;2.10;;;1.60;;
13807;SDS011;40769;51.512;5.494;2023-05-20T12:13:01;2.08;;;1.70;;
13807;SDS011;40769;51.512;5.494;2023-05-20T12:15:27;1.70;;;1.60;;
13807;SDS011;40769;51.512;5.494;2023-05-20T12:17:54;2.47;;;1.83;;
13807;SDS011;40769;51.512;5.494;2023-05-20T12:20:20;2.05;;;1.80;;
13807;SDS011;40769;51.512;5.494;2023-05-20T12:22:47;2.85;;;1.70;;
13807;SDS011;40769;51.512;5.494;2023-05-20T12:25:14;2.00;;;1.77;;
13807;SDS011;40769;51.512;5.494;2023-05-20T12:27:41;2.33;;;1.95;;
13807;SDS011;40769;51.512;5.494;2023-05-20T12:30:11;2.15;;;1.65;;
13807;SDS011;40769;51.512;5.494;2023-05-20T12:32:41;2.20;;;1.60;;
13807;SDS011;40769;51.512;5.494;2023-05-20T12:35:08;2.15;;;2.05;;
13807;SDS011;40769;51.512;5.494;2023-05-20T12:37:34;2.03;;;1.90;;
13807;SDS011;40769;51.512;5.494;2023-05-20T12:40:01;2.65;;;2.00;;
13807;SDS011;40769;51.512;5.494;2023-05-20T12:42:41;2.03;;;1.88;;
13807;SDS011;40769;51.512;5.494;2023-05-20T12:45:07;1.90;;;1.67;;
13807;SDS011;40769;51.512;5.494;2023-05-20T12:47:34;2.25;;;1.77;;
13807;SDS011;40769;51.512;5.494;2023-05-20T12:50:00;2.17;;;1.98;;
13807;SDS011;40769;51.512;5.494;2023-05-20T12:52:27;3.38;;;2.00;;
13807;SDS011;40769;51.512;5.494;2023-05-20T12:54:53;2.35;;;1.98;;
13807;SDS011;40769;51.512;5.494;2023-05-20T12:57:19;2.92;;;2.08;;
13807;SDS011;40769;51.512;5.494;2023-05-20T12:59:45;2.20;;;2.00;;
13807;SDS011;40769;51.512;5.494;2023-05-20T13:02:11;1.92;;;1.83;;
13807;SDS011;40769;51.512;5.494;2023-05-20T13:04:36;3.80;;;2.10;;
13807;SDS011;40769;51.512;5.494;2023-05-20T13:07:02;2.33;;;2.13;;
13807;SDS011;40769;51.512;5.494;2023-05-20T13:09:28;1.80;;;1.70;;
13807;SDS011;40769;51.512;5.494;2023-05-20T13:11:54;3.47;;;2.10;;
13807;SDS011;40769;51.512;5.494;2023-05-20T13:14:19;2.78;;;1.73;;
13807;SDS011;40769;51.512;5.494;2023-05-20T13:16:45;1.73;;;1.63;;
13807;SDS011;40769;51.512;5.494;2023-05-20T13:19:12;3.97;;;2.03;;
13807;SDS011;40769;51.512;5.494;2023-05-20T13:21:37;1.58;;;1.45;;
13807;SDS011;40769;51.512;5.494;2023-05-20T13:24:03;2.83;;;1.80;;
13807;SDS011;40769;51.512;5.494;2023-05-20T13:26:29;2.85;;;2.03;;
13807;SDS011;40769;51.512;5.494;2023-05-20T13:28:55;2.00;;;1.83;;
13807;SDS011;40769;51.512;5.494;2023-05-20T13:31:21;1.85;;;1.48;;
13807;SDS011;40769;51.512;5.494;2023-05-20T13:33:46;1.60;;;1.50;;
13807;SDS011;40769;51.512;5.494;2023-05-20T13:36:12;2.28;;;1.80;;
13807;SDS011;40769;51.512;5.494;2023-05-20T13:38:37;3.63;;;1.65;;
13807;SDS011;40769;51.512;5.494;2023-05-20T13:41:03;2.20;;;1.70;;
13807;SDS011;40769;51.512;5.494;2023-05-20T13:46:21;2.15;;;1.60;;
13807;SDS011;40769;51.512;5.494;2023-05-20T13:48:46;2.15;;;1.70;;
13807;SDS011;40769;51.512;5.494;2023-05-20T13:51:12;2.40;;;1.98;;
13807;SDS011;40769;51.512;5.494;2023-05-20T13:53:38;1.90;;;1.60;;
13807;SDS011;40769;51.512;5.494;2023-05-20T13:56:04;2.22;;;1.60;;
13807;SDS011;40769;51.512;5.494;2023-05-20T13:58:33;2.28;;;1.73;;
13807;SDS011;40769;51.512;5.494;2023-05-20T14:01:01;1.50;;;1.33;;
13807;SDS011;40769;51.512;5.494;2023-05-20T14:03:31;1.95;;;1.75;;
13807;SDS011;40769;51.512;5.494;2023-05-20T14:05:58;2.05;;;1.70;;
13807;SDS011;40769;51.512;5.494;2023-05-20T14:08:24;2.05;;;1.70;;
13807;SDS011;40769;51.512;5.494;2023-05-20T14:10:50;2.00;;;1.80;;
13807;SDS011;40769;51.512;5.494;2023-05-20T14:13:19;1.30;;;1.20;;
13807;SDS011;40769;51.512;5.494;2023-05-20T14:15:48;1.70;;;1.60;;
13807;SDS011;40769;51.512;5.494;2023-05-20T14:18:18;1.67;;;1.58;;
13807;SDS011;40769;51.512;5.494;2023-05-20T14:20:45;2.13;;;1.85;;
13807;SDS011;40769;51.512;5.494;2023-05-20T14:23:11;2.80;;;1.65;;
13807;SDS011;40769;51.512;5.494;2023-05-20T14:25:37;2.17;;;1.90;;
13807;SDS011;40769;51.512;5.494;2023-05-20T14:28:03;2.00;;;1.80;;
13807;SDS011;40769;51.512;5.494;2023-05-20T14:30:30;1.50;;;1.40;;
13807;SDS011;40769;51.512;5.494;2023-05-20T14:32:55;1.63;;;1.50;;
13807;SDS011;40769;51.512;5.494;2023-05-20T14:35:21;1.70;;;1.60;;
13807;SDS011;40769;51.512;5.494;2023-05-20T14:37:47;3.20;;;1.80;;
13807;SDS011;40769;51.512;5.494;2023-05-20T14:40:12;1.88;;;1.60;;
13807;SDS011;40769;51.512;5.494;2023-05-20T14:42:38;1.92;;;1.40;;
13807;SDS011;40769;51.512;5.494;2023-05-20T14:45:04;2.45;;;1.50;;
13807;SDS011;40769;51.512;5.494;2023-05-20T14:47:31;1.55;;;1.45;;
13807;SDS011;40769;51.512;5.494;2023-05-20T14:49:59;1.98;;;1.80;;
13807;SDS011;40769;51.512;5.494;2023-05-20T14:52:24;2.13;;;1.55;;
13807;SDS011;40769;51.512;5.494;2023-05-20T14:54:50;1.55;;;1.45;;
13807;SDS011;40769;51.512;5.494;2023-05-20T14:57:16;1.58;;;1.25;;
13807;SDS011;40769;51.512;5.494;2023-05-20T14:59:42;1.73;;;1.52;;
13807;SDS011;40769;51.512;5.494;2023-05-20T15:02:08;2.40;;;1.98;;
13807;SDS011;40769;51.512;5.494;2023-05-20T15:04:33;1.58;;;1.45;;